Terminal Aerodrome Forecast
Issued by NWS

Home | Current Version | Previous Version | Text Only | Print | Product List | Glossary On
Versions: 1 2 3 4 5 6 7 8 9 10 11 12 13 14
000
FTUS46 KEKA 021144
TAFUKI
TAF
KUKI 021144Z 0212/0312 00000KT P6SM SCT250
     FM021900 31007KT P6SM VCSH SCT050 SCT100 BKN250
     FM030300 00000KT P6SM FEW100 SCT250=

USA.gov is the U.S. government's official web portal to all federal, state and local government web resources and services.